sensor_id;sensor_type;location;lat;lon;timestamp;P1;durP1;ratioP1;P2;durP2;ratioP2
68479;SDS011;55469;48.934;12.050;2023-07-13T00:01:50;4.38;;;3.15;;
68479;SDS011;55469;48.934;12.050;2023-07-13T00:04:17;3.60;;;3.10;;
68479;SDS011;55469;48.934;12.050;2023-07-13T00:06:45;3.10;;;2.80;;
68479;SDS011;55469;48.934;12.050;2023-07-13T00:09:12;3.35;;;2.72;;
68479;SDS011;55469;48.934;12.050;2023-07-13T00:11:42;5.05;;;2.92;;
68479;SDS011;55469;48.934;12.050;2023-07-13T00:14:09;4.82;;;3.20;;
68479;SDS011;55469;48.934;12.050;2023-07-13T00:16:37;4.22;;;3.00;;
68479;SDS011;55469;48.934;12.050;2023-07-13T00:19:05;3.33;;;2.78;;
68479;SDS011;55469;48.934;12.050;2023-07-13T00:21:31;3.20;;;2.90;;
68479;SDS011;55469;48.934;12.050;2023-07-13T00:23:57;3.40;;;3.10;;
68479;SDS011;55469;48.934;12.050;2023-07-13T00:26:24;3.28;;;2.97;;
68479;SDS011;55469;48.934;12.050;2023-07-13T00:28:50;3.28;;;2.85;;
68479;SDS011;55469;48.934;12.050;2023-07-13T00:31:16;4.00;;;2.85;;
68479;SDS011;55469;48.934;12.050;2023-07-13T00:33:42;4.53;;;2.90;;
68479;SDS011;55469;48.934;12.050;2023-07-13T00:36:09;4.45;;;3.10;;
68479;SDS011;55469;48.934;12.050;2023-07-13T00:38:36;3.35;;;3.00;;
68479;SDS011;55469;48.934;12.050;2023-07-13T00:41:02;3.33;;;2.90;;
68479;SDS011;55469;48.934;12.050;2023-07-13T00:48:59;4.25;;;2.58;;
68479;SDS011;55469;48.934;12.050;2023-07-13T00:51:32;2.95;;;2.65;;
68479;SDS011;55469;48.934;12.050;2023-07-13T00:54:07;3.45;;;3.00;;
68479;SDS011;55469;48.934;12.050;2023-07-13T00:56:38;3.17;;;2.75;;
68479;SDS011;55469;48.934;12.050;2023-07-13T00:59:06;3.13;;;2.60;;
68479;SDS011;55469;48.934;12.050;2023-07-13T01:01:36;3.45;;;2.50;;
68479;SDS011;55469;48.934;12.050;2023-07-13T01:04:02;4.80;;;2.72;;
68479;SDS011;55469;48.934;12.050;2023-07-13T01:06:28;3.13;;;2.50;;
68479;SDS011;55469;48.934;12.050;2023-07-13T01:08:55;2.85;;;2.53;;
68479;SDS011;55469;48.934;12.050;2023-07-13T01:11:22;4.75;;;2.63;;
68479;SDS011;55469;48.934;12.050;2023-07-13T01:13:49;2.67;;;2.30;;
68479;SDS011;55469;48.934;12.050;2023-07-13T01:16:17;3.33;;;2.60;;
68479;SDS011;55469;48.934;12.050;2023-07-13T01:18:50;4.03;;;2.70;;
68479;SDS011;55469;48.934;12.050;2023-07-13T01:21:16;3.63;;;2.53;;
68479;SDS011;55469;48.934;12.050;2023-07-13T01:23:43;2.90;;;2.40;;
68479;SDS011;55469;48.934;12.050;2023-07-13T01:26:09;2.83;;;2.50;;
68479;SDS011;55469;48.934;12.050;2023-07-13T01:28:36;3.10;;;2.03;;
68479;SDS011;55469;48.934;12.050;2023-07-13T01:31:02;2.78;;;2.30;;
68479;SDS011;55469;48.934;12.050;2023-07-13T01:33:29;3.28;;;2.70;;
68479;SDS011;55469;48.934;12.050;2023-07-13T01:35:56;2.92;;;2.60;;
68479;SDS011;55469;48.934;12.050;2023-07-13T01:38:24;2.97;;;2.28;;
68479;SDS011;55469;48.934;12.050;2023-07-13T01:40:51;4.45;;;2.50;;
68479;SDS011;55469;48.934;12.050;2023-07-13T01:43:17;4.78;;;2.45;;
68479;SDS011;55469;48.934;12.050;2023-07-13T01:45:44;2.72;;;2.30;;
68479;SDS011;55469;48.934;12.050;2023-07-13T01:48:10;3.90;;;2.60;;
68479;SDS011;55469;48.934;12.050;2023-07-13T01:50:36;4.68;;;2.40;;
68479;SDS011;55469;48.934;12.050;2023-07-13T01:53:02;2.70;;;2.10;;
68479;SDS011;55469;48.934;12.050;2023-07-13T01:55:29;2.97;;;2.58;;
68479;SDS011;55469;48.934;12.050;2023-07-13T01:57:57;3.10;;;2.40;;
68479;SDS011;55469;48.934;12.050;2023-07-13T02:00:23;4.75;;;2.60;;
68479;SDS011;55469;48.934;12.050;2023-07-13T02:02:49;3.58;;;2.40;;
68479;SDS011;55469;48.934;12.050;2023-07-13T02:05:15;2.63;;;2.30;;
68479;SDS011;55469;48.934;12.050;2023-07-13T02:07:41;2.88;;;2.38;;
68479;SDS011;55469;48.934;12.050;2023-07-13T02:10:07;4.30;;;2.67;;
68479;SDS011;55469;48.934;12.050;2023-07-13T02:12:35;3.15;;;2.85;;
68479;SDS011;55469;48.934;12.050;2023-07-13T02:15:02;4.20;;;2.40;;
68479;SDS011;55469;48.934;12.050;2023-07-13T02:17:28;2.55;;;2.30;;
68479;SDS011;55469;48.934;12.050;2023-07-13T02:19:54;2.95;;;2.25;;
68479;SDS011;55469;48.934;12.050;2023-07-13T02:22:23;4.35;;;2.65;;
68479;SDS011;55469;48.934;12.050;2023-07-13T02:24:49;3.35;;;2.60;;
68479;SDS011;55469;48.934;12.050;2023-07-13T02:27:15;3.28;;;2.42;;
68479;SDS011;55469;48.934;12.050;2023-07-13T02:29:41;2.42;;;2.22;;
68479;SDS011;55469;48.934;12.050;2023-07-13T02:32:07;5.75;;;2.60;;
68479;SDS011;55469;48.934;12.050;2023-07-13T02:34:33;3.17;;;2.42;;
68479;SDS011;55469;48.934;12.050;2023-07-13T02:36:59;3.75;;;2.40;;
68479;SDS011;55469;48.934;12.050;2023-07-13T02:39:25;3.40;;;2.33;;
68479;SDS011;55469;48.934;12.050;2023-07-13T02:41:51;2.67;;;2.47;;
68479;SDS011;55469;48.934;12.050;2023-07-13T02:44:16;2.80;;;2.60;;
68479;SDS011;55469;48.934;12.050;2023-07-13T02:46:42;2.33;;;2.17;;
68479;SDS011;55469;48.934;12.050;2023-07-13T02:49:08;5.75;;;2.50;;
68479;SDS011;55469;48.934;12.050;2023-07-13T02:51:34;2.60;;;2.20;;
68479;SDS011;55469;48.934;12.050;2023-07-13T02:54:03;2.88;;;2.40;;
68479;SDS011;55469;48.934;12.050;2023-07-13T02:56:30;4.00;;;2.70;;
68479;SDS011;55469;48.934;12.050;2023-07-13T02:58:57;2.95;;;2.40;;
68479;SDS011;55469;48.934;12.050;2023-07-13T03:01:23;7.43;;;2.70;;
68479;SDS011;55469;48.934;12.050;2023-07-13T03:03:49;4.32;;;2.35;;
68479;SDS011;55469;48.934;12.050;2023-07-13T03:06:17;4.85;;;2.60;;
68479;SDS011;55469;48.934;12.050;2023-07-13T03:08:43;3.25;;;2.60;;
68479;SDS011;55469;48.934;12.050;2023-07-13T03:11:10;2.75;;;2.55;;
68479;SDS011;55469;48.934;12.050;2023-07-13T03:13:41;3.63;;;2.20;;
68479;SDS011;55469;48.934;12.050;2023-07-13T03:16:08;4.30;;;2.45;;
68479;SDS011;55469;48.934;12.050;2023-07-13T03:18:35;4.22;;;2.58;;
68479;SDS011;55469;48.934;12.050;2023-07-13T03:21:01;2.53;;;2.30;;
68479;SDS011;55469;48.934;12.050;2023-07-13T03:23:28;2.65;;;2.40;;
68479;SDS011;55469;48.934;12.050;2023-07-13T03:26:05;5.38;;;2.55;;
68479;SDS011;55469;48.934;12.050;2023-07-13T03:28:43;3.67;;;2.58;;
68479;SDS011;55469;48.934;12.050;2023-07-13T03:31:10;3.70;;;2.05;;
68479;SDS011;55469;48.934;12.050;2023-07-13T03:33:57;4.53;;;2.50;;
68479;SDS011;55469;48.934;12.050;2023-07-13T03:36:26;6.57;;;2.70;;
68479;SDS011;55469;48.934;12.050;2023-07-13T03:38:54;4.18;;;2.38;;
68479;SDS011;55469;48.934;12.050;2023-07-13T03:41:23;5.50;;;2.70;;
68479;SDS011;55469;48.934;12.050;2023-07-13T03:43:49;3.38;;;2.60;;
68479;SDS011;55469;48.934;12.050;2023-07-13T03:46:15;3.95;;;2.60;;
68479;SDS011;55469;48.934;12.050;2023-07-13T03:48:43;4.85;;;2.50;;
68479;SDS011;55469;48.934;12.050;2023-07-13T03:51:11;3.05;;;2.60;;
68479;SDS011;55469;48.934;12.050;2023-07-13T03:53:40;2.78;;;2.50;;
68479;SDS011;55469;48.934;12.050;2023-07-13T03:56:08;6.47;;;2.80;;
68479;SDS011;55469;48.934;12.050;2023-07-13T03:58:35;3.03;;;2.50;;
68479;SDS011;55469;48.934;12.050;2023-07-13T04:01:04;3.03;;;2.40;;
68479;SDS011;55469;48.934;12.050;2023-07-13T04:03:33;4.43;;;2.58;;
68479;SDS011;55469;48.934;12.050;2023-07-13T04:05:59;3.88;;;2.67;;
68479;SDS011;55469;48.934;12.050;2023-07-13T04:08:27;6.22;;;3.13;;
68479;SDS011;55469;48.934;12.050;2023-07-13T04:10:55;3.83;;;3.10;;
68479;SDS011;55469;48.934;12.050;2023-07-13T04:13:21;4.40;;;3.05;;
68479;SDS011;55469;48.934;12.050;2023-07-13T04:15:47;4.25;;;3.42;;
68479;SDS011;55469;48.934;12.050;2023-07-13T04:18:13;4.47;;;3.58;;
68479;SDS011;55469;48.934;12.050;2023-07-13T04:20:39;3.40;;;3.10;;
68479;SDS011;55469;48.934;12.050;2023-07-13T04:23:05;3.60;;;2.90;;
68479;SDS011;55469;48.934;12.050;2023-07-13T04:25:30;4.95;;;3.08;;
68479;SDS011;55469;48.934;12.050;2023-07-13T04:27:56;5.30;;;4.07;;
68479;SDS011;55469;48.934;12.050;2023-07-13T04:30:22;6.10;;;3.40;;
68479;SDS011;55469;48.934;12.050;2023-07-13T04:32:49;3.78;;;3.33;;
68479;SDS011;55469;48.934;12.050;2023-07-13T04:35:17;6.72;;;3.75;;
68479;SDS011;55469;48.934;12.050;2023-07-13T04:37:45;4.13;;;3.70;;
68479;SDS011;55469;48.934;12.050;2023-07-13T04:40:15;4.63;;;3.80;;
68479;SDS011;55469;48.934;12.050;2023-07-13T04:42:44;6.75;;;3.90;;
68479;SDS011;55469;48.934;12.050;2023-07-13T04:45:11;6.82;;;3.78;;
68479;SDS011;55469;48.934;12.050;2023-07-13T04:47:40;3.75;;;3.45;;
68479;SDS011;55469;48.934;12.050;2023-07-13T04:50:07;4.95;;;4.30;;
68479;SDS011;55469;48.934;12.050;2023-07-13T04:52:35;5.57;;;3.97;;
68479;SDS011;55469;48.934;12.050;2023-07-13T04:55:02;5.07;;;4.20;;
68479;SDS011;55469;48.934;12.050;2023-07-13T04:57:28;4.13;;;3.72;;
68479;SDS011;55469;48.934;12.050;2023-07-13T04:59:53;4.20;;;3.80;;
68479;SDS011;55469;48.934;12.050;2023-07-13T05:02:22;6.22;;;3.72;;
68479;SDS011;55469;48.934;12.050;2023-07-13T05:04:48;3.80;;;3.50;;
68479;SDS011;55469;48.934;12.050;2023-07-13T05:07:18;4.28;;;3.88;;
68479;SDS011;55469;48.934;12.050;2023-07-13T05:09:44;4.57;;;3.60;;
68479;SDS011;55469;48.934;12.050;2023-07-13T05:12:10;6.18;;;4.07;;
68479;SDS011;55469;48.934;12.050;2023-07-13T05:14:35;5.38;;;3.78;;
68479;SDS011;55469;48.934;12.050;2023-07-13T05:17:01;4.50;;;4.10;;
68479;SDS011;55469;48.934;12.050;2023-07-13T05:19:27;4.95;;;4.25;;
68479;SDS011;55469;48.934;12.050;2023-07-13T05:21:53;4.93;;;3.80;;
68479;SDS011;55469;48.934;12.050;2023-07-13T05:24:19;5.25;;;3.97;;
68479;SDS011;55469;48.934;12.050;2023-07-13T05:26:45;4.57;;;3.58;;
68479;SDS011;55469;48.934;12.050;2023-07-13T05:29:10;4.50;;;3.90;;
68479;SDS011;55469;48.934;12.050;2023-07-13T05:31:36;4.20;;;3.80;;
68479;SDS011;55469;48.934;12.050;2023-07-13T05:34:02;4.50;;;3.90;;
68479;SDS011;55469;48.934;12.050;2023-07-13T05:36:28;5.38;;;3.70;;
68479;SDS011;55469;48.934;12.050;2023-07-13T05:38:53;4.20;;;3.80;;
68479;SDS011;55469;48.934;12.050;2023-07-13T05:41:19;5.05;;;4.00;;
68479;SDS011;55469;48.934;12.050;2023-07-13T05:43:45;5.25;;;3.80;;
68479;SDS011;55469;48.934;12.050;2023-07-13T05:46:11;4.43;;;3.42;;
68479;SDS011;55469;48.934;12.050;2023-07-13T05:48:36;5.13;;;3.55;;
68479;SDS011;55469;48.934;12.050;2023-07-13T05:51:02;4.47;;;3.63;;
68479;SDS011;55469;48.934;12.050;2023-07-13T05:53:28;3.85;;;3.40;;
68479;SDS011;55469;48.934;12.050;2023-07-13T05:55:54;4.07;;;3.13;;
68479;SDS011;55469;48.934;12.050;2023-07-13T05:58:21;6.03;;;2.95;;
68479;SDS011;55469;48.934;12.050;2023-07-13T06:00:47;3.58;;;3.28;;
68479;SDS011;55469;48.934;12.050;2023-07-13T06:03:13;3.95;;;3.28;;
68479;SDS011;55469;48.934;12.050;2023-07-13T06:05:39;3.72;;;3.17;;
68479;SDS011;55469;48.934;12.050;2023-07-13T06:08:06;5.60;;;3.10;;
68479;SDS011;55469;48.934;12.050;2023-07-13T06:10:33;5.15;;;3.22;;
68479;SDS011;55469;48.934;12.050;2023-07-13T06:13:00;4.65;;;2.97;;
68479;SDS011;55469;48.934;12.050;2023-07-13T06:15:25;3.72;;;2.60;;
68479;SDS011;55469;48.934;12.050;2023-07-13T06:17:52;4.35;;;2.60;;
68479;SDS011;55469;48.934;12.050;2023-07-13T06:20:18;4.55;;;2.80;;
68479;SDS011;55469;48.934;12.050;2023-07-13T06:22:43;3.17;;;2.58;;
68479;SDS011;55469;48.934;12.050;2023-07-13T06:25:09;3.65;;;2.92;;
68479;SDS011;55469;48.934;12.050;2023-07-13T06:27:35;3.55;;;2.80;;
68479;SDS011;55469;48.934;12.050;2023-07-13T06:30:01;3.20;;;2.35;;
68479;SDS011;55469;48.934;12.050;2023-07-13T06:32:27;2.63;;;2.42;;
68479;SDS011;55469;48.934;12.050;2023-07-13T06:34:52;3.97;;;2.30;;
68479;SDS011;55469;48.934;12.050;2023-07-13T06:37:18;3.30;;;2.47;;
68479;SDS011;55469;48.934;12.050;2023-07-13T06:39:44;3.05;;;2.28;;
68479;SDS011;55469;48.934;12.050;2023-07-13T06:42:10;2.92;;;2.60;;
68479;SDS011;55469;48.934;12.050;2023-07-13T06:44:36;4.05;;;2.45;;
68479;SDS011;55469;48.934;12.050;2023-07-13T06:47:02;2.97;;;1.95;;
68479;SDS011;55469;48.934;12.050;2023-07-13T06:49:28;3.13;;;2.28;;
68479;SDS011;55469;48.934;12.050;2023-07-13T06:51:53;2.42;;;2.20;;
68479;SDS011;55469;48.934;12.050;2023-07-13T06:54:19;3.03;;;2.40;;
68479;SDS011;55469;48.934;12.050;2023-07-13T06:56:45;4.47;;;2.33;;
68479;SDS011;55469;48.934;12.050;2023-07-13T06:59:11;2.83;;;2.22;;
68479;SDS011;55469;48.934;12.050;2023-07-13T07:01:36;3.03;;;2.10;;
68479;SDS011;55469;48.934;12.050;2023-07-13T07:04:03;4.68;;;2.40;;
68479;SDS011;55469;48.934;12.050;2023-07-13T07:06:29;2.65;;;1.95;;
68479;SDS011;55469;48.934;12.050;2023-07-13T07:08:55;4.25;;;2.20;;
68479;SDS011;55469;48.934;12.050;2023-07-13T07:11:21;2.33;;;1.98;;
68479;SDS011;55469;48.934;12.050;2023-07-13T07:13:50;4.00;;;2.10;;
68479;SDS011;55469;48.934;12.050;2023-07-13T07:16:18;1.98;;;1.80;;
68479;SDS011;55469;48.934;12.050;2023-07-13T07:18:45;2.03;;;1.83;;
68479;SDS011;55469;48.934;12.050;2023-07-13T07:21:12;2.10;;;1.90;;
68479;SDS011;55469;48.934;12.050;2023-07-13T07:23:39;2.80;;;2.00;;
68479;SDS011;55469;48.934;12.050;2023-07-13T07:26:05;4.30;;;2.22;;
68479;SDS011;55469;48.934;12.050;2023-07-13T07:28:33;2.90;;;1.60;;
68479;SDS011;55469;48.934;12.050;2023-07-13T07:31:00;2.08;;;1.88;;
68479;SDS011;55469;48.934;12.050;2023-07-13T07:33:26;3.45;;;1.90;;
68479;SDS011;55469;48.934;12.050;2023-07-13T07:35:51;2.10;;;1.90;;
68479;SDS011;55469;48.934;12.050;2023-07-13T07:38:17;2.08;;;1.88;;
68479;SDS011;55469;48.934;12.050;2023-07-13T07:40:43;4.65;;;1.75;;
68479;SDS011;55469;48.934;12.050;2023-07-13T07:43:09;2.33;;;2.00;;
68479;SDS011;55469;48.934;12.050;2023-07-13T07:45:38;3.40;;;1.95;;
68479;SDS011;55469;48.934;12.050;2023-07-13T07:48:05;3.40;;;2.05;;
68479;SDS011;55469;48.934;12.050;2023-07-13T07:50:31;3.47;;;2.00;;
68479;SDS011;55469;48.934;12.050;2023-07-13T07:52:57;3.00;;;1.55;;
68479;SDS011;55469;48.934;12.050;2023-07-13T07:55:24;2.13;;;1.60;;
68479;SDS011;55469;48.934;12.050;2023-07-13T07:57:53;1.67;;;1.50;;
68479;SDS011;55469;48.934;12.050;2023-07-13T08:00:21;3.40;;;1.75;;
68479;SDS011;55469;48.934;12.050;2023-07-13T08:02:47;1.83;;;1.40;;
68479;SDS011;55469;48.934;12.050;2023-07-13T08:05:13;4.30;;;1.58;;
68479;SDS011;55469;48.934;12.050;2023-07-13T08:07:39;3.40;;;1.50;;
68479;SDS011;55469;48.934;12.050;2023-07-13T08:10:06;2.63;;;1.50;;
68479;SDS011;55469;48.934;12.050;2023-07-13T08:12:39;2.85;;;1.65;;
68479;SDS011;55469;48.934;12.050;2023-07-13T08:15:08;2.25;;;1.55;;
68479;SDS011;55469;48.934;12.050;2023-07-13T08:17:39;2.72;;;1.60;;
68479;SDS011;55469;48.934;12.050;2023-07-13T08:20:04;3.20;;;1.67;;
68479;SDS011;55469;48.934;12.050;2023-07-13T08:22:31;3.85;;;1.83;;
68479;SDS011;55469;48.934;12.050;2023-07-13T08:24:57;1.83;;;1.55;;
68479;SDS011;55469;48.934;12.050;2023-07-13T08:27:24;3.28;;;1.70;;
68479;SDS011;55469;48.934;12.050;2023-07-13T08:29:52;2.50;;;1.52;;
68479;SDS011;55469;48.934;12.050;2023-07-13T08:32:19;4.13;;;1.48;;
68479;SDS011;55469;48.934;12.050;2023-07-13T08:34:48;1.70;;;1.60;;
68479;SDS011;55469;48.934;12.050;2023-07-13T08:37:14;3.63;;;1.83;;
68479;SDS011;55469;48.934;12.050;2023-07-13T08:39:41;3.00;;;1.58;;
68479;SDS011;55469;48.934;12.050;2023-07-13T08:47:26;1.40;;;1.30;;
68479;SDS011;55469;48.934;12.050;2023-07-13T08:49:56;3.42;;;1.65;;
68479;SDS011;55469;48.934;12.050;2023-07-13T08:52:35;2.53;;;1.40;;
68479;SDS011;55469;48.934;12.050;2023-07-13T08:55:15;2.25;;;1.35;;
68479;SDS011;55469;48.934;12.050;2023-07-13T08:57:59;4.18;;;1.38;;
68479;SDS011;55469;48.934;12.050;2023-07-13T09:00:44;1.50;;;1.30;;
68479;SDS011;55469;48.934;12.050;2023-07-13T09:03:46;2.20;;;1.40;;
68479;SDS011;55469;48.934;12.050;2023-07-13T09:06:31;1.77;;;1.20;;
68479;SDS011;55469;48.934;12.050;2023-07-13T09:09:25;2.22;;;1.50;;
68479;SDS011;55469;48.934;12.050;2023-07-13T09:15:17;2.67;;;1.40;;
68479;SDS011;55469;48.934;12.050;2023-07-13T09:20:57;1.67;;;1.20;;
68479;SDS011;55469;48.934;12.050;2023-07-13T09:23:29;2.35;;;1.20;;
68479;SDS011;55469;48.934;12.050;2023-07-13T09:26:06;1.30;;;1.20;;
68479;SDS011;55469;48.934;12.050;2023-07-13T09:28:44;1.85;;;1.30;;
68479;SDS011;55469;48.934;12.050;2023-07-13T09:34:10;2.08;;;1.40;;
68479;SDS011;55469;48.934;12.050;2023-07-13T09:36:37;2.63;;;1.30;;
68479;SDS011;55469;48.934;12.050;2023-07-13T09:50:27;1.95;;;1.25;;
68479;SDS011;55469;48.934;12.050;2023-07-13T09:52:49;2.15;;;1.35;;
68479;SDS011;55469;48.934;12.050;2023-07-13T09:57:55;2.50;;;1.17;;
68479;SDS011;55469;48.934;12.050;2023-07-13T10:00:22;2.25;;;1.30;;
68479;SDS011;55469;48.934;12.050;2023-07-13T10:05:37;1.95;;;1.20;;
68479;SDS011;55469;48.934;12.050;2023-07-13T10:08:15;1.67;;;1.10;;
68479;SDS011;55469;48.934;12.050;2023-07-13T10:10:59;2.08;;;1.23;;
68479;SDS011;55469;48.934;12.050;2023-07-13T10:13:29;1.75;;;1.20;;
68479;SDS011;55469;48.934;12.050;2023-07-13T10:16:00;1.73;;;1.25;;
68479;SDS011;55469;48.934;12.050;2023-07-13T10:18:26;1.38;;;1.13;;
68479;SDS011;55469;48.934;12.050;2023-07-13T10:21:10;2.25;;;1.30;;
68479;SDS011;55469;48.934;12.050;2023-07-13T10:23:40;1.52;;;1.17;;
68479;SDS011;55469;48.934;12.050;2023-07-13T10:26:12;1.40;;;1.10;;
68479;SDS011;55469;48.934;12.050;2023-07-13T10:28:51;1.58;;;1.10;;
68479;SDS011;55469;48.934;12.050;2023-07-13T10:31:20;2.17;;;1.10;;
68479;SDS011;55469;48.934;12.050;2023-07-13T10:33:47;2.08;;;1.13;;
68479;SDS011;55469;48.934;12.050;2023-07-13T10:36:23;2.20;;;1.33;;
68479;SDS011;55469;48.934;12.050;2023-07-13T10:39:00;1.83;;;1.20;;
68479;SDS011;55469;48.934;12.050;2023-07-13T10:41:30;2.45;;;1.30;;
68479;SDS011;55469;48.934;12.050;2023-07-13T10:44:04;2.50;;;1.08;;
68479;SDS011;55469;48.934;12.050;2023-07-13T10:46:35;1.25;;;1.20;;
68479;SDS011;55469;48.934;12.050;2023-07-13T10:49:02;1.30;;;1.02;;
68479;SDS011;55469;48.934;12.050;2023-07-13T10:51:30;1.52;;;1.10;;
68479;SDS011;55469;48.934;12.050;2023-07-13T10:56:34;2.38;;;1.00;;
68479;SDS011;55469;48.934;12.050;2023-07-13T10:59:01;1.95;;;1.10;;
68479;SDS011;55469;48.934;12.050;2023-07-13T11:01:49;1.98;;;1.15;;
68479;SDS011;55469;48.934;12.050;2023-07-13T11:04:16;1.98;;;1.05;;
68479;SDS011;55469;48.934;12.050;2023-07-13T11:06:45;2.50;;;1.20;;
68479;SDS011;55469;48.934;12.050;2023-07-13T11:20:08;3.10;;;1.10;;
68479;SDS011;55469;48.934;12.050;2023-07-13T11:25:38;2.10;;;1.00;;
68479;SDS011;55469;48.934;12.050;2023-07-13T11:30:37;1.95;;;1.02;;
68479;SDS011;55469;48.934;12.050;2023-07-13T11:33:18;2.78;;;1.15;;
68479;SDS011;55469;48.934;12.050;2023-07-13T11:38:22;1.83;;;1.10;;
68479;SDS011;55469;48.934;12.050;2023-07-13T11:41:14;2.58;;;1.10;;
68479;SDS011;55469;48.934;12.050;2023-07-13T11:43:49;2.55;;;1.00;;
68479;SDS011;55469;48.934;12.050;2023-07-13T11:46:22;1.35;;;0.90;;
68479;SDS011;55469;48.934;12.050;2023-07-13T11:48:51;2.78;;;1.00;;
68479;SDS011;55469;48.934;12.050;2023-07-13T11:51:19;1.20;;;1.00;;
68479;SDS011;55469;48.934;12.050;2023-07-13T11:53:56;1.00;;;0.90;;
68479;SDS011;55469;48.934;12.050;2023-07-13T11:56:48;2.28;;;1.02;;
68479;SDS011;55469;48.934;12.050;2023-07-13T11:59:14;1.85;;;1.00;;
68479;SDS011;55469;48.934;12.050;2023-07-13T12:01:51;2.30;;;1.10;;
68479;SDS011;55469;48.934;12.050;2023-07-13T12:04:21;1.02;;;0.90;;
68479;SDS011;55469;48.934;12.050;2023-07-13T12:07:04;4.20;;;1.05;;
68479;SDS011;55469;48.934;12.050;2023-07-13T12:09:34;2.75;;;1.10;;
68479;SDS011;55469;48.934;12.050;2023-07-13T12:12:01;1.90;;;0.93;;
68479;SDS011;55469;48.934;12.050;2023-07-13T12:14:28;2.13;;;1.00;;
68479;SDS011;55469;48.934;12.050;2023-07-13T12:16:54;2.17;;;0.90;;
68479;SDS011;55469;48.934;12.050;2023-07-13T12:19:27;2.25;;;1.15;;
68479;SDS011;55469;48.934;12.050;2023-07-13T12:21:55;1.50;;;1.00;;
68479;SDS011;55469;48.934;12.050;2023-07-13T12:24:23;0.98;;;0.88;;
68479;SDS011;55469;48.934;12.050;2023-07-13T12:26:53;1.58;;;0.88;;
68479;SDS011;55469;48.934;12.050;2023-07-13T12:29:26;1.52;;;0.88;;
68479;SDS011;55469;48.934;12.050;2023-07-13T12:31:52;0.80;;;0.80;;
68479;SDS011;55469;48.934;12.050;2023-07-13T12:34:19;1.05;;;0.98;;
68479;SDS011;55469;48.934;12.050;2023-07-13T12:36:58;1.55;;;0.90;;
68479;SDS011;55469;48.934;12.050;2023-07-13T12:39:46;1.75;;;1.08;;
68479;SDS011;55469;48.934;12.050;2023-07-13T12:42:21;2.33;;;0.80;;
68479;SDS011;55469;48.934;12.050;2023-07-13T12:44:59;2.60;;;0.82;;
68479;SDS011;55469;48.934;12.050;2023-07-13T12:47:41;0.95;;;0.80;;
68479;SDS011;55469;48.934;12.050;2023-07-13T12:50:15;1.33;;;0.90;;
68479;SDS011;55469;48.934;12.050;2023-07-13T12:52:50;0.80;;;0.80;;
68479;SDS011;55469;48.934;12.050;2023-07-13T12:55:19;2.15;;;1.00;;
68479;SDS011;55469;48.934;12.050;2023-07-13T12:57:49;1.00;;;0.90;;
68479;SDS011;55469;48.934;12.050;2023-07-13T13:03:03;0.98;;;0.80;;
68479;SDS011;55469;48.934;12.050;2023-07-13T13:05:46;1.88;;;0.70;;
68479;SDS011;55469;48.934;12.050;2023-07-13T13:08:12;1.88;;;1.10;;
68479;SDS011;55469;48.934;12.050;2023-07-13T13:10:40;1.20;;;0.80;;
68479;SDS011;55469;48.934;12.050;2023-07-13T13:13:06;2.03;;;1.00;;
68479;SDS011;55469;48.934;12.050;2023-07-13T13:15:33;1.40;;;1.08;;
68479;SDS011;55469;48.934;12.050;2023-07-13T13:17:59;2.08;;;0.90;;
68479;SDS011;55469;48.934;12.050;2023-07-13T13:20:25;1.40;;;0.80;;
68479;SDS011;55469;48.934;12.050;2023-07-13T13:22:51;1.42;;;0.90;;
68479;SDS011;55469;48.934;12.050;2023-07-13T13:25:17;0.98;;;0.90;;
68479;SDS011;55469;48.934;12.050;2023-07-13T13:27:44;1.02;;;0.85;;
68479;SDS011;55469;48.934;12.050;2023-07-13T13:30:11;2.08;;;0.93;;
68479;SDS011;55469;48.934;12.050;2023-07-13T13:32:41;1.67;;;1.00;;
68479;SDS011;55469;48.934;12.050;2023-07-13T13:37:45;1.42;;;0.82;;
68479;SDS011;55469;48.934;12.050;2023-07-13T13:40:20;1.30;;;1.00;;
68479;SDS011;55469;48.934;12.050;2023-07-13T13:42:51;2.47;;;0.93;;
68479;SDS011;55469;48.934;12.050;2023-07-13T13:45:19;0.90;;;0.80;;
68479;SDS011;55469;48.934;12.050;2023-07-13T13:47:46;0.93;;;0.70;;
68479;SDS011;55469;48.934;12.050;2023-07-13T13:50:14;1.23;;;0.90;;
68479;SDS011;55469;48.934;12.050;2023-07-13T13:52:44;1.40;;;0.88;;
68479;SDS011;55469;48.934;12.050;2023-07-13T13:55:18;0.82;;;0.75;;
68479;SDS011;55469;48.934;12.050;2023-07-13T13:57:46;1.00;;;0.80;;
68479;SDS011;55469;48.934;12.050;2023-07-13T14:00:13;1.63;;;0.88;;
68479;SDS011;55469;48.934;12.050;2023-07-13T14:02:42;1.38;;;0.80;;
68479;SDS011;55469;48.934;12.050;2023-07-13T14:05:25;0.73;;;0.73;;
68479;SDS011;55469;48.934;12.050;2023-07-13T14:07:52;0.90;;;0.80;;
68479;SDS011;55469;48.934;12.050;2023-07-13T14:10:19;1.23;;;0.80;;
68479;SDS011;55469;48.934;12.050;2023-07-13T14:12:45;1.25;;;1.00;;
68479;SDS011;55469;48.934;12.050;2023-07-13T14:15:17;0.82;;;0.77;;
68479;SDS011;55469;48.934;12.050;2023-07-13T14:17:53;0.80;;;0.80;;
68479;SDS011;55469;48.934;12.050;2023-07-13T14:20:20;1.40;;;0.80;;
68479;SDS011;55469;48.934;12.050;2023-07-13T14:22:49;1.42;;;1.00;;
68479;SDS011;55469;48.934;12.050;2023-07-13T14:25:16;1.40;;;1.00;;
68479;SDS011;55469;48.934;12.050;2023-07-13T14:27:44;1.20;;;0.80;;
68479;SDS011;55469;48.934;12.050;2023-07-13T14:30:17;0.95;;;0.95;;
68479;SDS011;55469;48.934;12.050;2023-07-13T14:32:46;2.22;;;0.82;;
68479;SDS011;55469;48.934;12.050;2023-07-13T14:35:14;2.22;;;0.90;;
68479;SDS011;55469;48.934;12.050;2023-07-13T14:37:41;2.28;;;1.10;;
68479;SDS011;55469;48.934;12.050;2023-07-13T14:40:12;1.10;;;1.00;;
68479;SDS011;55469;48.934;12.050;2023-07-13T14:42:46;1.30;;;0.80;;
68479;SDS011;55469;48.934;12.050;2023-07-13T14:45:19;2.17;;;0.88;;
68479;SDS011;55469;48.934;12.050;2023-07-13T14:47:46;0.85;;;0.60;;
68479;SDS011;55469;48.934;12.050;2023-07-13T14:50:20;0.80;;;0.80;;
68479;SDS011;55469;48.934;12.050;2023-07-13T14:52:57;1.40;;;0.80;;
68479;SDS011;55469;48.934;12.050;2023-07-13T14:55:23;1.75;;;0.88;;
68479;SDS011;55469;48.934;12.050;2023-07-13T14:57:51;0.85;;;0.70;;
68479;SDS011;55469;48.934;12.050;2023-07-13T15:00:21;0.85;;;0.73;;
68479;SDS011;55469;48.934;12.050;2023-07-13T15:02:51;2.25;;;0.75;;
68479;SDS011;55469;48.934;12.050;2023-07-13T15:05:23;2.28;;;0.90;;
68479;SDS011;55469;48.934;12.050;2023-07-13T15:07:56;1.10;;;0.90;;
68479;SDS011;55469;48.934;12.050;2023-07-13T15:10:26;1.48;;;0.75;;
68479;SDS011;55469;48.934;12.050;2023-07-13T15:12:59;1.05;;;0.80;;
68479;SDS011;55469;48.934;12.050;2023-07-13T15:15:48;1.20;;;0.80;;
68479;SDS011;55469;48.934;12.050;2023-07-13T15:18:18;1.73;;;1.00;;
68479;SDS011;55469;48.934;12.050;2023-07-13T15:20:47;1.23;;;0.70;;
68479;SDS011;55469;48.934;12.050;2023-07-13T15:23:15;0.70;;;0.60;;
68479;SDS011;55469;48.934;12.050;2023-07-13T15:25:42;1.50;;;0.80;;
68479;SDS011;55469;48.934;12.050;2023-07-13T15:28:10;1.02;;;0.80;;
68479;SDS011;55469;48.934;12.050;2023-07-13T15:30:38;1.38;;;0.80;;
68479;SDS011;55469;48.934;12.050;2023-07-13T15:33:31;1.63;;;0.90;;
68479;SDS011;55469;48.934;12.050;2023-07-13T15:35:58;1.45;;;0.70;;
68479;SDS011;55469;48.934;12.050;2023-07-13T15:38:25;0.73;;;0.73;;
68479;SDS011;55469;48.934;12.050;2023-07-13T15:40:54;2.95;;;0.82;;
68479;SDS011;55469;48.934;12.050;2023-07-13T15:43:21;1.17;;;0.80;;
68479;SDS011;55469;48.934;12.050;2023-07-13T15:45:48;1.35;;;0.85;;
68479;SDS011;55469;48.934;12.050;2023-07-13T15:48:17;2.10;;;1.10;;